100LL.CA
Aviation Fuel Pricing for Canadians
Please upgrade your browser - Tested with IE9, FireFox, Chrome, Safari

Fuel Prices Airport Info Airport List METAR / TAF Kneeboard RSS

Reference Airport: Berens River, MB
N 52 21 32   W 097 01 05

CYBV Berens River, MB
WEATHER
METARCYBV 172100Z 23003KT 170V280 15SM SKC M10/M16 A2969 RMK SLP075
REF N 52 21 32  W 097 01 05    Adj E    4E
UTC-6(5)    Elev 729    A5016 LO4 CAP
OPR Govt of Manitoba 204-945-3421
Cert
PFA-1 C-2,4,5 Tml bldg. opr 13-18Z, 19-22Z (DT 18-21Z) Mon-Fri, clsd Sat, Sun & hols
FLT PLN NOTAM FILE CYDN
FIC Winnipeg 866-WXBRIEF (Toll free within Canada) or 866-541-4103 (Toll free within Canada & USA)
WXMETAR 13-22Z Mon-Fri O/T LWIS
SERVICES
RWY DATARwy 09(086)/27(266) 2888x75 crushed rock Rwy 09 first 60' up 0.38%, next 600' down 0.30%, next 721' up 0.41%, last 787' down 0.45%
RCRAPM 204-382-2021 13-18Z, 19-22Z (DT 18-21Z) Mon-Fri exc hols O/T 1 hr PN 204-382-3156
LIGHTING09-(TE ME) P1, 27-(TE ME) P1 ARCAL-122.8 type K
COMM
RCOWinnipeg rdo 123.475 (FISE) 126.7 (bcst)
ATFUNICOM (AU) ltd hrs O/T tfc 122.8 5NM 3800 ASL
NAV
NDBYBV 370 (L) N52 21 15 W97 01 27 Unmonitored
CAUTIONExtv bird activity Apr-Oct.
Effective 0901Z 07 December 2017 to 0901Z 01 February 2018